»·PEaware :: N5002T KSBA-KSNA

N5002T :: KSBA-KSNA

FLIGHT INFORMATION

Flight Status: Arrived
Operator: Privately registered:
United States
More flights under this callsign
Pilot: Hunter M. (19355)
Aircraft: CESSNA 172 SKYHAWK
(C172)
More flights by this aircraft type
Origin: KSBA Santa Barbara Mun
United States
Destination: KSNA John Wayne-Orange Co
United States
More flights between these airports :: More routes between these airports
Route: KWANG CMA VNY V186 BAYJY V363 POXKU V8 SLI
File this flight plan on PilotEdge
Remarks: +CW / tec route SBAP6
Altitude:
(Current/Filed)
5,000ft
Speed:
(Current/Filed)
118kts
Departed: 03-May-19 07:35 AM
Arrived: 03-May-19 08:59 AM
Distance/Time
Traveled:
108nm/1:24
Distance/Time
To Go:
Arrived

Flight Plot

Page will automatically refresh every two minutes.


Map Options




Map Legend


Flown Route
Filed Route
Departure Airport
Arrival Airport
Navaid (VOR, NDB)
Fix

Horizontal Profiles

Position Reports

Time Latitude Longitude Heading Altitude Ground
Speed
03-May-19 07:18 34.431450 -119.832378 357 13ft 0kts
03-May-19 07:19 34.431450 -119.832378 357 13ft 0kts
03-May-19 07:20 34.431450 -119.832378 357 13ft 0kts
03-May-19 07:21 34.431450 -119.832378 357 13ft 0kts
03-May-19 07:22 34.431450 -119.832378 357 13ft 0kts
03-May-19 07:23 34.431450 -119.832378 357 13ft 0kts
03-May-19 07:24 34.431450 -119.832378 357 13ft 0kts
03-May-19 07:25 34.431450 -119.832378 357 13ft 0kts
03-May-19 07:26 34.431450 -119.832378 357 13ft 0kts
03-May-19 07:27 34.431450 -119.832378 357 13ft 0kts
03-May-19 07:28 34.430904 -119.832119 126 13ft 3kts
03-May-19 07:29 34.429086 -119.832656 268 13ft 3kts
03-May-19 07:30 34.428517 -119.835192 180 13ft 0kts
03-May-19 07:31 34.428516 -119.835192 180 13ft 0kts
03-May-19 07:32 34.427998 -119.835227 210 13ft 10kts
03-May-19 07:33 34.427852 -119.836254 268 13ft 22kts
03-May-19 07:34 34.427379 -119.857822 265 647ft 75kts
03-May-19 07:35 34.428744 -119.884459 270 1473ft 79kts
03-May-19 07:36 34.428839 -119.910491 268 2265ft 75kts
03-May-19 07:37 34.427523 -119.935549 268 2990ft 79kts
03-May-19 07:38 34.425172 -119.967634 268 3006ft 104kts
03-May-19 07:39 34.422715 -119.999904 268 2994ft 91kts
03-May-19 07:40 34.417465 -120.030629 217 3000ft 105kts
03-May-19 07:41 34.390640 -120.016594 150 3535ft 109kts
03-May-19 07:42 34.363908 -119.998010 149 4028ft 111kts
03-May-19 07:43 34.337357 -119.978669 131 4513ft 111kts
03-May-19 07:44 34.331816 -119.944032 91 5002ft 108kts
03-May-19 07:45 34.327057 -119.904408 91 4996ft 121kts
03-May-19 07:46 34.324600 -119.864704 83 5000ft 118kts
03-May-19 07:47 34.325441 -119.825277 79 5001ft 117kts
03-May-19 07:48 34.326559 -119.786013 79 5001ft 116kts
03-May-19 07:49 34.327613 -119.746848 87 5001ft 116kts
03-May-19 07:50 34.325297 -119.708069 89 5000ft 115kts
03-May-19 07:51 34.323076 -119.669572 91 5000ft 114kts
03-May-19 07:52 34.320227 -119.631234 91 5000ft 114kts
03-May-19 07:53 34.317607 -119.592928 90 5000ft 114kts
03-May-19 07:54 34.314879 -119.554599 90 5000ft 114kts
03-May-19 07:55 34.312399 -119.516151 90 5005ft 114kts
03-May-19 07:56 34.306028 -119.478352 100 5007ft 115kts
03-May-19 07:57 34.299384 -119.440546 100 5008ft 115kts
03-May-19 07:58 34.292903 -119.402714 99 5008ft 115kts
03-May-19 07:59 34.282886 -119.365968 108 5008ft 115kts
03-May-19 08:00 34.270871 -119.329965 113 5001ft 115kts
03-May-19 08:01 34.257936 -119.294415 105 5002ft 115kts
03-May-19 08:02 34.248833 -119.257256 104 5001ft 115kts
03-May-19 08:03 34.239900 -119.220212 103 5001ft 115kts
03-May-19 08:04 34.231050 -119.183094 103 5001ft 115kts
03-May-19 08:05 34.222391 -119.145895 103 5001ft 115kts
03-May-19 08:06 34.213874 -119.108640 103 5001ft 115kts
03-May-19 08:07 34.205361 -119.071412 103 5001ft 115kts
03-May-19 08:08 34.196971 -119.034033 102 5004ft 115kts
03-May-19 08:09 34.194691 -118.996281 83 5004ft 113kts
03-May-19 08:10 34.197337 -118.958440 80 5003ft 112kts
03-May-19 08:11 34.201616 -118.921045 75 5003ft 112kts
03-May-19 08:13 34.207573 -118.884065 71 5003ft 111kts
03-May-19 08:14 34.215998 -118.847960 69 5003ft 111kts
03-May-19 08:15 34.219017 -118.810400 85 5006ft 113kts
03-May-19 08:16 34.219654 -118.772148 85 5005ft 113kts
03-May-19 08:17 34.220385 -118.733988 85 5005ft 113kts
03-May-19 08:18 34.221218 -118.695719 85 5004ft 113kts
03-May-19 08:19 34.221684 -118.657535 86 5003ft 114kts
03-May-19 08:20 34.221692 -118.619293 86 5001ft 114kts
03-May-19 08:21 34.221850 -118.580954 86 4992ft 114kts
03-May-19 08:22 34.222216 -118.542533 86 4990ft 114kts
03-May-19 08:23 34.222433 -118.504248 87 4991ft 114kts
03-May-19 08:24 34.216445 -118.466812 105 4992ft 115kts
03-May-19 08:25 34.206606 -118.429883 107 4989ft 115kts
03-May-19 08:26 34.194360 -118.393993 105 4985ft 115kts
03-May-19 08:27 34.184181 -118.357141 106 4990ft 115kts
03-May-19 08:28 34.174174 -118.320386 108 4994ft 115kts
03-May-19 08:29 34.164078 -118.283343 111 4985ft 115kts
03-May-19 08:30 34.153246 -118.246842 111 4981ft 115kts
03-May-19 08:31 34.142648 -118.210330 111 4977ft 115kts
03-May-19 08:32 34.132150 -118.173767 111 4978ft 115kts
03-May-19 08:33 34.121721 -118.137194 110 4978ft 115kts
03-May-19 08:34 34.110512 -118.101590 115 4963ft 112kts
03-May-19 08:35 34.097976 -118.067645 115 5005ft 109kts
03-May-19 08:36 34.084266 -118.033929 115 5043ft 114kts
03-May-19 08:36 34.072606 -118.005000 115 5040ft 115kts
03-May-19 08:38 34.060037 -117.962623 107 5017ft 114kts
03-May-19 08:39 34.050441 -117.926510 107 5009ft 110kts
03-May-19 08:39 34.042986 -117.898127 107 5015ft 104kts
03-May-19 08:41 34.032351 -117.859550 107 5042ft 104kts
03-May-19 08:41 34.024230 -117.831882 109 5040ft 105kts
03-May-19 08:42 34.014152 -117.798888 108 5041ft 105kts
03-May-19 08:44 33.988555 -117.772760 151 4736ft 114kts
03-May-19 08:44 33.965340 -117.756431 151 4249ft 117kts
03-May-19 08:45 33.937245 -117.736584 151 3638ft 118kts
03-May-19 08:46 33.906362 -117.730139 184 3032ft 110kts
03-May-19 08:47 33.879621 -117.735327 211 3000ft 92kts
03-May-19 08:48 33.857703 -117.749275 213 3041ft 87kts
03-May-19 08:49 33.837171 -117.763571 214 3139ft 86kts
03-May-19 08:50 33.814939 -117.778796 212 3010ft 89kts
03-May-19 08:51 33.795019 -117.792689 214 2500ft 83kts
03-May-19 08:52 33.776143 -117.806499 206 1927ft 77kts
03-May-19 08:53 33.757557 -117.817182 202 1614ft 73kts
03-May-19 08:54 33.739265 -117.828817 215 1264ft 75kts
03-May-19 08:55 33.720156 -117.839651 211 920ft 76kts
03-May-19 08:56 33.702281 -117.851637 210 560ft 66kts
03-May-19 08:57 33.687209 -117.861390 210 241ft 60kts
03-May-19 08:58 33.678388 -117.868175 295 59ft 8kts
03-May-19 08:59 33.679004 -117.869608 299 59ft 0kts

Navigation Log

Ident Type
Flight plan parsing failed, navigation log unavailable